Time;durP1;ratioP1;P1;durP2;ratioP2;P2;SDS_P1;SDS_P2;PMS_P1;PMS_P2;Temp;Humidity;BMP_temperature;BMP_pressure;BME280_temperature;BME280_humidity;BME280_pressure;Samples;Min_cycle;Max_cycle;Signal;HPM_P1;HPM_P2
2023/06/02 00:01:09;;;;;;;12.00;2.83;;;11.00;99.90;;;;;;5094713;28;20032;-65
2023/06/02 00:03:37;;;;;;;11.48;3.38;;;11.00;99.90;;;;;;5093886;28;20043;-66
2023/06/02 00:06:05;;;;;;;10.13;2.47;;;11.00;99.90;;;;;;5093506;28;20086;-64
2023/06/02 00:08:32;;;;;;;9.93;2.58;;;11.00;99.90;;;;;;5094198;28;20040;-65
2023/06/02 00:10:58;;;;;;;9.18;2.95;;;11.00;99.90;;;;;;5094541;28;20040;-65
2023/06/02 00:13:24;;;;;;;10.18;2.75;;;10.90;99.90;;;;;;5094230;28;20482;-65
2023/06/02 00:15:50;;;;;;;17.52;3.25;;;11.00;99.90;;;;;;5094444;28;20036;-65
2023/06/02 00:18:16;;;;;;;11.90;2.97;;;11.00;99.90;;;;;;5094222;28;20477;-65
2023/06/02 00:20:42;;;;;;;17.52;3.58;;;10.90;99.90;;;;;;5094463;28;20064;-65
2023/06/02 00:23:08;;;;;;;10.35;3.13;;;10.90;99.90;;;;;;5094316;28;20039;-65
2023/06/02 00:25:34;;;;;;;12.40;3.25;;;10.90;99.90;;;;;;5094234;28;20153;-65
2023/06/02 00:28:00;;;;;;;9.88;2.78;;;10.90;99.90;;;;;;5094341;28;20036;-65
2023/06/02 00:30:27;;;;;;;16.00;3.05;;;10.90;99.90;;;;;;5094028;28;20039;-65
2023/06/02 00:32:53;;;;;;;15.02;2.92;;;10.90;99.90;;;;;;5094001;28;20119;-65
2023/06/02 00:35:18;;;;;;;12.45;2.72;;;10.90;99.90;;;;;;5093814;28;20062;-65
2023/06/02 00:37:44;;;;;;;14.52;3.10;;;11.00;99.90;;;;;;5093375;28;20418;-65
2023/06/02 00:40:10;;;;;;;16.08;2.92;;;10.90;99.90;;;;;;5093657;28;20457;-65
2023/06/02 00:42:35;;;;;;;14.70;3.42;;;10.90;99.90;;;;;;5094239;28;20104;-65
2023/06/02 00:45:01;;;;;;;10.15;2.63;;;10.90;99.90;;;;;;5093619;28;20039;-65
2023/06/02 00:47:26;;;;;;;10.00;3.17;;;10.90;99.90;;;;;;5093684;28;20044;-65
2023/06/02 00:49:52;;;;;;;13.88;3.63;;;10.90;99.90;;;;;;5094071;28;20036;-65
2023/06/02 00:52:18;;;;;;;13.60;3.05;;;10.90;99.90;;;;;;5093441;28;20116;-64
2023/06/02 00:54:44;;;;;;;15.95;3.25;;;10.80;99.90;;;;;;5092521;28;20089;-65
2023/06/02 00:57:10;;;;;;;11.40;3.03;;;10.90;99.90;;;;;;5093698;28;20485;-65
2023/06/02 00:59:39;;;;;;;14.18;2.63;;;10.90;99.90;;;;;;5093552;28;20089;-65
2023/06/02 01:02:05;;;;;;;13.60;2.78;;;10.90;99.90;;;;;;5093394;28;20119;-65
2023/06/02 01:04:31;;;;;;;16.35;3.17;;;10.90;99.90;;;;;;5093341;28;20533;-65
2023/06/02 01:07:02;;;;;;;14.43;3.28;;;10.80;99.90;;;;;;5093630;28;20050;-65
2023/06/02 01:09:29;;;;;;;14.88;3.08;;;10.80;99.90;;;;;;5093352;28;20063;-65
2023/06/02 01:11:56;;;;;;;13.93;3.08;;;10.90;99.90;;;;;;5093330;28;20048;-65
2023/06/02 01:14:22;;;;;;;13.27;2.67;;;10.90;99.90;;;;;;5092912;28;20043;-65
2023/06/02 01:16:49;;;;;;;12.07;2.42;;;10.80;99.90;;;;;;5093185;28;20047;-65
2023/06/02 01:19:21;;;;;;;11.93;2.65;;;10.80;99.90;;;;;;5092994;28;20043;-65
2023/06/02 01:21:57;;;;;;;12.27;3.10;;;10.80;99.90;;;;;;5093298;28;20272;-65
2023/06/02 01:24:29;;;;;;;11.60;2.95;;;10.90;99.90;;;;;;5092626;28;20032;-64
2023/06/02 01:26:55;;;;;;;11.68;2.72;;;10.80;99.90;;;;;;5092559;28;20040;-64
2023/06/02 01:29:21;;;;;;;15.88;2.92;;;10.90;99.90;;;;;;5092572;28;20039;-65
2023/06/02 01:31:52;;;;;;;14.48;3.47;;;10.90;99.90;;;;;;5093165;28;20383;-65
2023/06/02 01:34:48;;;;;;;16.83;2.92;;;10.90;99.90;;;;;;5091261;28;20489;-65
2023/06/02 01:37:14;;;;;;;15.13;3.15;;;10.90;99.90;;;;;;5091810;28;20505;-65
2023/06/02 01:39:41;;;;;;;15.18;3.83;;;10.90;99.90;;;;;;5092648;28;20040;-65
2023/06/02 01:42:09;;;;;;;13.02;2.72;;;10.90;99.90;;;;;;5092900;28;20050;-64
2023/06/02 01:44:36;;;;;;;12.85;3.08;;;10.90;99.90;;;;;;5092453;28;20047;-65
2023/06/02 01:47:02;;;;;;;17.33;2.67;;;10.90;99.90;;;;;;5092741;28;20113;-65
2023/06/02 01:49:27;;;;;;;15.32;2.95;;;10.90;99.90;;;;;;5092724;28;20067;-64
2023/06/02 01:51:54;;;;;;;14.98;2.78;;;10.80;99.90;;;;;;5092017;28;20039;-65
2023/06/02 01:54:20;;;;;;;14.45;2.92;;;10.80;99.90;;;;;;5091874;28;20054;-65
2023/06/02 01:56:46;;;;;;;16.65;3.35;;;10.80;99.90;;;;;;5092825;28;20400;-65
2023/06/02 01:59:12;;;;;;;13.07;2.65;;;10.80;99.90;;;;;;5092606;28;20115;-65
2023/06/02 02:01:40;;;;;;;14.63;3.50;;;10.80;99.90;;;;;;5085739;28;20085;-65
2023/06/02 02:04:06;;;;;;;11.82;3.05;;;10.80;99.90;;;;;;5090671;28;20048;-65
2023/06/02 02:06:32;;;;;;;12.40;2.60;;;10.80;99.90;;;;;;5091237;28;20089;-65
2023/06/02 02:08:59;;;;;;;9.95;2.78;;;10.80;99.90;;;;;;5092435;28;20489;-65
2023/06/02 02:11:28;;;;;;;11.80;2.58;;;10.80;99.90;;;;;;5092219;28;20499;-65
2023/06/02 02:13:57;;;;;;;15.45;3.00;;;10.80;99.90;;;;;;5091994;28;20036;-66
2023/06/02 02:16:22;;;;;;;11.20;2.53;;;10.80;99.90;;;;;;5073505;28;20040;-65
2023/06/02 02:18:48;;;;;;;13.10;2.70;;;10.80;99.90;;;;;;5092154;28;20040;-65
2023/06/02 02:21:14;;;;;;;14.70;3.50;;;10.80;99.90;;;;;;5091732;28;20043;-65
2023/06/02 02:23:40;;;;;;;8.82;2.65;;;10.90;99.90;;;;;;5092038;28;20119;-65
2023/06/02 02:26:06;;;;;;;12.25;2.65;;;10.80;99.90;;;;;;5092264;28;20076;-65
2023/06/02 02:28:32;;;;;;;15.90;3.45;;;10.80;99.90;;;;;;5092178;28;20032;-65
2023/06/02 02:30:57;;;;;;;15.88;3.22;;;10.80;99.90;;;;;;5092140;28;20043;-65
2023/06/02 02:33:23;;;;;;;10.15;2.75;;;10.80;99.90;;;;;;5091403;28;20093;-65
2023/06/02 02:35:51;;;;;;;15.10;3.05;;;10.90;99.90;;;;;;5090839;28;20047;-65
2023/06/02 02:38:16;;;;;;;15.60;3.13;;;10.90;99.90;;;;;;5091014;28;20032;-65
2023/06/02 02:40:42;;;;;;;11.90;2.55;;;10.90;99.90;;;;;;5091913;28;20520;-65
2023/06/02 02:43:07;;;;;;;12.75;2.65;;;10.90;99.90;;;;;;5090466;28;20043;-65
2023/06/02 02:45:33;;;;;;;15.70;2.75;;;10.90;99.90;;;;;;5091769;28;20044;-65
2023/06/02 02:47:58;;;;;;;14.10;3.05;;;10.90;99.90;;;;;;5091938;28;20382;-65
2023/06/02 02:50:25;;;;;;;14.23;3.05;;;11.00;99.90;;;;;;5090379;28;20107;-65
2023/06/02 02:52:51;;;;;;;13.27;2.95;;;10.90;99.90;;;;;;5091779;28;20123;-65
2023/06/02 02:55:16;;;;;;;12.88;2.83;;;10.90;99.90;;;;;;5091797;28;20561;-65
2023/06/02 02:57:42;;;;;;;12.85;2.75;;;10.90;99.90;;;;;;5091972;28;20120;-65
2023/06/02 03:00:09;;;;;;;18.02;3.30;;;10.90;99.90;;;;;;5091888;28;20040;-65
2023/06/02 03:02:35;;;;;;;10.35;2.80;;;10.90;99.90;;;;;;5091673;28;20090;-65
2023/06/02 03:05:02;;;;;;;14.95;2.45;;;10.90;99.90;;;;;;5091309;28;20093;-65
2023/06/02 03:07:32;;;;;;;14.23;2.78;;;10.90;99.90;;;;;;5090977;28;20048;-65
2023/06/02 03:09:57;;;;;;;14.27;3.05;;;10.90;99.90;;;;;;5091328;28;20489;-65
2023/06/02 03:12:23;;;;;;;11.63;3.13;;;10.90;99.90;;;;;;5091747;28;20080;-65
2023/06/02 03:14:49;;;;;;;15.43;2.88;;;10.90;99.90;;;;;;5090728;28;20043;-65
2023/06/02 03:17:17;;;;;;;17.10;3.88;;;10.90;99.90;;;;;;5091724;28;20076;-65
2023/06/02 03:19:43;;;;;;;14.35;3.10;;;10.90;99.90;;;;;;5091040;28;20036;-65
2023/06/02 03:22:09;;;;;;;9.60;2.75;;;10.90;99.90;;;;;;5091721;28;20068;-65
2023/06/02 03:24:34;;;;;;;21.30;3.05;;;10.90;99.90;;;;;;5090551;28;20063;-65
2023/06/02 03:27:00;;;;;;;14.77;3.03;;;10.90;99.90;;;;;;5091696;28;20047;-65
2023/06/02 03:29:25;;;;;;;21.73;2.97;;;10.90;99.90;;;;;;5095282;28;20039;-65
2023/06/02 03:31:53;;;;;;;21.38;3.00;;;10.90;99.90;;;;;;5094867;28;20032;-65
2023/06/02 03:34:20;;;;;;;13.05;3.13;;;10.90;99.90;;;;;;5094595;28;20505;-65
2023/06/02 03:36:46;;;;;;;12.93;2.63;;;10.90;99.90;;;;;;5094952;28;20533;-65
2023/06/02 03:39:12;;;;;;;12.77;2.55;;;10.90;99.90;;;;;;5093932;28;20119;-65
2023/06/02 03:41:38;;;;;;;16.55;3.17;;;10.90;99.90;;;;;;5094574;28;20503;-65
2023/06/02 03:44:04;;;;;;;14.30;3.00;;;10.90;99.90;;;;;;5094846;28;20040;-65
2023/06/02 03:46:30;;;;;;;14.95;2.80;;;10.90;99.90;;;;;;5093209;28;20047;-65
2023/06/02 03:48:56;;;;;;;12.65;2.53;;;10.90;99.90;;;;;;5095224;28;20119;-65
2023/06/02 03:51:21;;;;;;;15.18;2.58;;;10.90;99.90;;;;;;5093563;28;20495;-65
2023/06/02 03:53:49;;;;;;;17.45;2.88;;;10.90;99.90;;;;;;5094697;28;20047;-65
2023/06/02 03:56:15;;;;;;;12.40;2.45;;;10.90;99.90;;;;;;5094026;28;20517;-65
2023/06/02 03:58:40;;;;;;;14.57;2.88;;;10.90;99.90;;;;;;5094809;28;20039;-65
2023/06/02 04:01:06;;;;;;;16.98;2.97;;;10.90;99.90;;;;;;5089707;28;20036;-65
2023/06/02 04:03:37;;;;;;;13.20;2.60;;;10.90;99.90;;;;;;5085237;28;20043;-65
2023/06/02 04:06:06;;;;;;;16.05;2.97;;;10.90;99.90;;;;;;5092649;28;20047;-65
2023/06/02 04:08:33;;;;;;;18.13;3.30;;;10.90;99.90;;;;;;5094745;28;20086;-65
2023/06/02 04:10:58;;;;;;;12.82;2.90;;;11.00;99.90;;;;;;5093912;28;20084;-64
2023/06/02 04:13:24;;;;;;;16.48;2.88;;;11.00;99.90;;;;;;5093623;28;20036;-64
2023/06/02 04:15:50;;;;;;;11.40;2.42;;;11.00;99.90;;;;;;5093936;28;20116;-65
2023/06/02 04:18:16;;;;;;;13.10;2.53;;;11.00;99.90;;;;;;5093224;28;20036;-64
2023/06/02 04:20:41;;;;;;;12.15;3.22;;;11.00;99.90;;;;;;5094310;28;20115;-64
2023/06/02 04:23:07;;;;;;;14.85;3.33;;;11.00;99.90;;;;;;5094267;28;20040;-64
2023/06/02 04:25:32;;;;;;;12.48;2.92;;;11.00;99.90;;;;;;5094202;28;20035;-65
2023/06/02 04:27:58;;;;;;;11.55;2.72;;;11.00;99.90;;;;;;5094194;28;20040;-64
2023/06/02 04:30:23;;;;;;;17.45;2.90;;;11.10;99.90;;;;;;5094071;28;20081;-64
2023/06/02 04:32:49;;;;;;;15.80;2.50;;;11.10;99.90;;;;;;5094018;28;20108;-64
2023/06/02 04:35:16;;;;;;;10.60;2.90;;;11.10;99.90;;;;;;5093708;28;20037;-64
2023/06/02 04:37:43;;;;;;;12.18;2.75;;;11.10;99.90;;;;;;5093617;28;20350;-64
2023/06/02 04:40:10;;;;;;;13.15;3.05;;;11.10;99.90;;;;;;5093794;28;20047;-65
2023/06/02 04:42:38;;;;;;;14.90;3.05;;;11.10;99.90;;;;;;5093599;28;20040;-65
2023/06/02 04:45:11;;;;;;;11.73;2.45;;;11.10;99.90;;;;;;5092220;28;20040;-64
2023/06/02 04:47:38;;;;;;;17.00;2.92;;;11.10;99.90;;;;;;5093124;28;20300;-64
2023/06/02 04:50:06;;;;;;;12.25;2.50;;;11.10;99.90;;;;;;5093927;28;20061;-64
2023/06/02 04:52:32;;;;;;;14.90;2.88;;;11.10;99.90;;;;;;5093500;28;20090;-65
2023/06/02 04:54:58;;;;;;;10.60;2.67;;;11.20;99.90;;;;;;5093516;28;20505;-64
2023/06/02 04:57:23;;;;;;;13.07;2.67;;;11.20;99.90;;;;;;5093588;28;20036;-64
2023/06/02 04:59:49;;;;;;;11.77;2.63;;;11.20;99.90;;;;;;5093620;28;20043;-64
2023/06/02 05:02:15;;;;;;;13.38;2.58;;;11.20;99.90;;;;;;5093772;28;20108;-64
2023/06/02 05:04:40;;;;;;;12.70;3.10;;;11.30;99.90;;;;;;5093021;28;20040;-64
2023/06/02 05:07:07;;;;;;;15.05;2.70;;;11.30;99.90;;;;;;5093352;28;20047;-65
2023/06/02 05:09:32;;;;;;;13.52;2.60;;;11.30;99.90;;;;;;5093546;28;20035;-64
2023/06/02 05:11:59;;;;;;;18.67;3.70;;;11.30;99.90;;;;;;5093367;28;20093;-64
2023/06/02 05:14:24;;;;;;;13.77;2.90;;;11.40;99.90;;;;;;5092810;28;20043;-64
2023/06/02 05:16:51;;;;;;;13.25;2.70;;;11.40;99.90;;;;;;5092048;28;20547;-64
2023/06/02 05:19:16;;;;;;;10.98;2.92;;;11.40;99.90;;;;;;5093405;28;20393;-65
2023/06/02 05:21:42;;;;;;;15.10;3.40;;;11.40;99.90;;;;;;5092970;28;20040;-64
2023/06/02 05:24:07;;;;;;;20.80;3.88;;;11.40;99.90;;;;;;5092903;28;20050;-64
2023/06/02 05:26:33;;;;;;;14.32;2.72;;;11.40;99.90;;;;;;5092944;28;20036;-65
2023/06/02 05:28:58;;;;;;;14.20;2.42;;;11.50;99.90;;;;;;5092879;28;20122;-64
2023/06/02 05:31:24;;;;;;;11.25;2.90;;;11.50;99.90;;;;;;5092667;28;20043;-64
2023/06/02 05:33:49;;;;;;;13.73;3.05;;;11.60;99.90;;;;;;5092567;28;20489;-64
2023/06/02 05:36:15;;;;;;;11.60;3.03;;;11.50;99.90;;;;;;5092725;28;20043;-64
2023/06/02 05:38:44;;;;;;;16.73;3.17;;;11.60;99.90;;;;;;5092797;28;20040;-64
2023/06/02 05:41:10;;;;;;;20.33;3.35;;;11.60;99.90;;;;;;5092342;28;20114;-65
2023/06/02 05:43:36;;;;;;;13.90;2.75;;;11.60;99.90;;;;;;5092550;28;20093;-65
2023/06/02 05:46:02;;;;;;;16.30;3.20;;;11.60;99.90;;;;;;5092760;28;20068;-64
2023/06/02 05:48:27;;;;;;;15.40;2.67;;;11.60;99.90;;;;;;5092838;28;20044;-64
2023/06/02 05:50:53;;;;;;;16.33;3.50;;;11.70;99.90;;;;;;5091977;28;20051;-65
2023/06/02 05:53:19;;;;;;;19.55;3.50;;;11.70;99.90;;;;;;5092201;28;20040;-65
2023/06/02 05:55:45;;;;;;;17.40;3.10;;;11.70;99.90;;;;;;5092598;28;20406;-64
2023/06/02 05:58:11;;;;;;;20.15;3.38;;;11.70;99.90;;;;;;5092530;28;20040;-64
2023/06/02 06:00:38;;;;;;;18.20;3.58;;;11.70;99.90;;;;;;5092481;28;20040;-64
2023/06/02 06:03:03;;;;;;;18.10;3.17;;;11.80;99.90;;;;;;5092448;28;20085;-64
2023/06/02 06:05:29;;;;;;;13.80;3.28;;;11.80;99.90;;;;;;5092297;28;20040;-64
2023/06/02 06:07:54;;;;;;;18.50;3.58;;;11.80;99.90;;;;;;5091074;28;20036;-65
2023/06/02 06:10:20;;;;;;;17.20;3.70;;;11.80;99.90;;;;;;5092135;28;20036;-65
2023/06/02 06:12:46;;;;;;;10.43;3.28;;;11.80;99.90;;;;;;5092275;28;20482;-65
2023/06/02 06:15:11;;;;;;;12.38;3.60;;;11.90;99.90;;;;;;5091943;28;20460;-65
2023/06/02 06:17:51;;;;;;;9.18;2.60;;;11.90;99.90;;;;;;5092398;28;20086;-65
2023/06/02 06:20:17;;;;;;;14.20;3.20;;;12.00;99.90;;;;;;5090982;28;20040;-65
2023/06/02 06:22:43;;;;;;;18.88;3.50;;;12.00;99.90;;;;;;5092166;28;20051;-64
2023/06/02 06:25:10;;;;;;;20.63;3.45;;;12.00;99.90;;;;;;5091697;28;20374;-65
2023/06/02 06:27:36;;;;;;;13.45;3.42;;;12.00;99.90;;;;;;5092165;28;20409;-65
2023/06/02 06:30:02;;;;;;;14.00;3.28;;;12.00;99.90;;;;;;5092320;28;20032;-65
2023/06/02 06:32:27;;;;;;;17.15;4.10;;;12.10;99.90;;;;;;5092461;28;20051;-65
2023/06/02 06:34:53;;;;;;;16.77;3.70;;;12.10;99.90;;;;;;5089855;28;20041;-65
2023/06/02 06:37:18;;;;;;;16.05;3.42;;;12.10;99.90;;;;;;5091732;28;20429;-65
2023/06/02 06:39:44;;;;;;;17.08;4.00;;;12.10;99.90;;;;;;5091023;28;20070;-65
2023/06/02 06:42:10;;;;;;;20.20;3.72;;;12.20;99.90;;;;;;5091887;28;20036;-65
2023/06/02 06:44:36;;;;;;;18.63;4.22;;;12.10;99.90;;;;;;5091059;28;20115;-65
2023/06/02 06:47:01;;;;;;;17.83;4.03;;;12.20;99.90;;;;;;5091636;28;20043;-65
2023/06/02 06:49:27;;;;;;;18.55;3.63;;;12.20;99.90;;;;;;5092045;28;20421;-65
2023/06/02 06:51:52;;;;;;;16.35;4.30;;;12.20;99.90;;;;;;5091502;28;20213;-65
2023/06/02 06:54:18;;;;;;;16.80;3.72;;;12.20;99.90;;;;;;5091350;28;20032;-65
2023/06/02 06:56:45;;;;;;;20.50;4.18;;;12.20;99.90;;;;;;5091508;28;20078;-65
2023/06/02 06:59:11;;;;;;;17.65;4.18;;;12.20;99.90;;;;;;5092068;28;20085;-65
2023/06/02 07:01:37;;;;;;;18.08;4.20;;;12.20;99.90;;;;;;5092370;28;20047;-65
2023/06/02 07:04:03;;;;;;;20.60;4.75;;;12.20;99.90;;;;;;5095413;28;20036;-65
2023/06/02 07:06:29;;;;;;;16.48;4.72;;;12.30;99.90;;;;;;5095700;28;20036;-65
2023/06/02 07:08:55;;;;;;;24.13;4.28;;;12.40;99.90;;;;;;5095716;28;20036;-65
2023/06/02 07:11:20;;;;;;;25.10;4.78;;;12.40;99.90;;;;;;5095911;28;20059;-65
2023/06/02 07:13:46;;;;;;;18.50;4.10;;;12.50;99.90;;;;;;5095446;28;20172;-65
2023/06/02 07:16:12;;;;;;;18.50;4.00;;;12.60;99.90;;;;;;5095673;28;20516;-65
2023/06/02 07:18:37;;;;;;;23.23;4.80;;;12.60;99.90;;;;;;5095577;28;20070;-65
2023/06/02 07:21:06;;;;;;;18.45;4.72;;;12.70;99.90;;;;;;5095532;28;20694;-65
2023/06/02 07:23:31;;;;;;;25.77;5.10;;;12.80;99.90;;;;;;5095245;28;20044;-65
2023/06/02 07:25:57;;;;;;;20.40;4.68;;;12.80;99.90;;;;;;5095610;28;20036;-65
2023/06/02 07:28:22;;;;;;;19.42;5.32;;;12.80;99.90;;;;;;5094634;28;20040;-65
2023/06/02 07:30:48;;;;;;;18.50;4.72;;;12.90;99.90;;;;;;5095431;28;20036;-65
2023/06/02 07:33:15;;;;;;;20.35;4.70;;;12.90;99.90;;;;;;5094624;28;20083;-65
2023/06/02 07:35:41;;;;;;;19.48;4.88;;;12.90;99.90;;;;;;5095034;28;20431;-65
2023/06/02 07:38:06;;;;;;;20.83;5.15;;;13.00;99.90;;;;;;5094787;28;20604;-65
2023/06/02 07:40:32;;;;;;;23.80;5.85;;;13.00;99.90;;;;;;5095448;28;20365;-65
2023/06/02 07:42:58;;;;;;;23.60;4.65;;;13.10;99.90;;;;;;5095231;28;20043;-65
2023/06/02 07:45:23;;;;;;;17.17;4.65;;;13.10;99.90;;;;;;5094795;28;20028;-65
2023/06/02 07:47:49;;;;;;;19.30;4.57;;;13.10;99.90;;;;;;5095021;28;20040;-65
2023/06/02 07:50:14;;;;;;;22.08;5.22;;;13.30;99.90;;;;;;5094890;28;20032;-65
2023/06/02 07:52:40;;;;;;;20.50;4.88;;;13.30;99.90;;;;;;5095117;28;20497;-65
2023/06/02 07:55:06;;;;;;;14.57;4.10;;;13.30;99.90;;;;;;5094754;28;20039;-65
2023/06/02 07:57:32;;;;;;;21.20;5.18;;;13.30;99.90;;;;;;5093642;28;20036;-65
2023/06/02 07:59:57;;;;;;;25.83;5.95;;;13.40;99.90;;;;;;5094890;28;20412;-65
2023/06/02 08:02:23;;;;;;;23.15;4.88;;;13.40;99.90;;;;;;5094857;28;20066;-65
2023/06/02 08:04:48;;;;;;;18.20;5.18;;;13.40;99.90;;;;;;5094261;28;20040;-65
2023/06/02 08:07:14;;;;;;;22.75;5.13;;;13.50;99.90;;;;;;5094782;28;20044;-65
2023/06/02 08:09:40;;;;;;;23.83;5.68;;;13.50;99.90;;;;;;5094805;28;20063;-65
2023/06/02 08:12:06;;;;;;;17.65;4.78;;;13.40;99.90;;;;;;5094751;28;20396;-65
2023/06/02 08:14:31;;;;;;;24.88;5.78;;;13.50;99.90;;;;;;5093422;28;20032;-65
2023/06/02 08:16:57;;;;;;;20.08;5.25;;;13.60;99.90;;;;;;5094040;28;20032;-64
2023/06/02 08:19:23;;;;;;;21.35;5.63;;;13.80;99.90;;;;;;5093014;28;20501;-64
2023/06/02 08:21:48;;;;;;;18.13;5.63;;;14.30;99.90;;;;;;5094566;28;20047;-65
2023/06/02 08:24:14;;;;;;;26.05;5.68;;;14.60;99.90;;;;;;5094120;28;20055;-64
2023/06/02 08:26:41;;;;;;;20.20;5.30;;;14.80;99.90;;;;;;5094446;28;20079;-65
2023/06/02 08:29:10;;;;;;;18.33;5.93;;;15.00;99.90;;;;;;5094283;28;20119;-64
2023/06/02 08:31:36;;;;;;;19.27;5.80;;;14.90;99.90;;;;;;5094314;28;20036;-65
2023/06/02 08:34:04;;;;;;;21.30;5.85;;;14.80;99.90;;;;;;5108303;22;20430;-66
2023/06/02 08:36:29;;;;;;;27.63;6.55;;;14.80;99.90;;;;;;5050280;28;20048;-65
2023/06/02 08:38:55;;;;;;;19.65;5.32;;;14.80;99.90;;;;;;5053492;28;20163;-65
2023/06/02 08:41:21;;;;;;;20.05;5.35;;;14.90;99.90;;;;;;5053468;28;20051;-66
2023/06/02 08:43:47;;;;;;;23.48;5.70;;;14.90;99.90;;;;;;5053193;28;20065;-65
2023/06/02 08:46:14;;;;;;;18.52;5.75;;;14.90;99.90;;;;;;5053401;28;20037;-65
2023/06/02 08:48:47;;;;;;;20.80;5.78;;;15.00;99.90;;;;;;5053484;28;20044;-66
2023/06/02 08:51:22;;;;;;;20.90;6.10;;;15.10;99.90;;;;;;5053863;28;20032;-66
2023/06/02 08:53:47;;;;;;;20.15;5.07;;;15.10;99.90;;;;;;5052349;28;20055;-66
2023/06/02 08:56:14;;;;;;;16.33;5.18;;;15.40;99.90;;;;;;5053296;28;20037;-66
2023/06/02 08:58:43;;;;;;;21.23;5.80;;;15.80;99.90;;;;;;5053263;28;20128;-66
2023/06/02 09:01:08;;;;;;;17.55;5.38;;;15.90;99.90;;;;;;5053331;28;20033;-66
2023/06/02 09:03:34;;;;;;;20.58;5.20;;;15.90;99.90;;;;;;5053089;28;20033;-66
2023/06/02 09:06:00;;;;;;;17.52;5.38;;;15.80;99.90;;;;;;5053277;28;20040;-66
2023/06/02 09:08:29;;;;;;;20.55;6.05;;;16.00;99.90;;;;;;5053166;28;20033;-66
2023/06/02 09:10:54;;;;;;;20.73;5.03;;;16.30;99.90;;;;;;5052001;28;20041;-65
2023/06/02 09:13:31;;;;;;;18.33;5.43;;;16.20;99.90;;;;;;5052776;28;20037;-65
2023/06/02 09:16:01;;;;;;;15.45;4.95;;;16.40;99.90;;;;;;5053045;28;20040;-65
2023/06/02 09:18:27;;;;;;;19.90;5.10;;;16.70;99.90;;;;;;5053240;28;20406;-66
2023/06/02 09:20:53;;;;;;;13.88;4.78;;;17.00;99.90;;;;;;5053219;28;20033;-66
2023/06/02 09:23:19;;;;;;;17.75;5.65;;;17.20;99.90;;;;;;5052801;28;20072;-66
2023/06/02 09:25:45;;;;;;;14.65;4.72;;;17.50;99.90;;;;;;5051751;28;20033;-66
2023/06/02 09:28:12;;;;;;;19.23;4.75;;;17.70;99.90;;;;;;5052640;28;20458;-66
2023/06/02 09:30:38;;;;;;;13.77;3.95;;;18.00;99.90;;;;;;5052752;28;20548;-65
2023/06/02 09:33:11;;;;;;;12.93;3.72;;;18.30;99.90;;;;;;5052920;28;20044;-66
2023/06/02 09:35:45;;;;;;;11.00;3.22;;;18.40;99.90;;;;;;5052518;28;20049;-66
2023/06/02 09:38:12;;;;;;;11.95;3.85;;;18.40;99.90;;;;;;5052673;28;20483;-66
2023/06/02 09:40:40;;;;;;;11.88;2.72;;;18.40;99.90;;;;;;5052132;28;20460;-66
2023/06/02 09:43:07;;;;;;;9.93;3.75;;;18.40;99.90;;;;;;5052401;28;20045;-66
2023/06/02 09:45:54;;;;;;;12.07;2.63;;;18.40;99.90;;;;;;5051022;28;20045;-66
2023/06/02 09:48:23;;;;;;;14.70;3.50;;;18.60;99.90;;;;;;5051559;28;20048;-66
2023/06/02 09:50:49;;;;;;;9.15;2.63;;;18.60;99.90;;;;;;5051327;28;20043;-66
2023/06/02 09:53:17;;;;;;;14.68;3.13;;;18.70;99.90;;;;;;5051992;28;20045;-67
2023/06/02 09:55:45;;;;;;;10.80;2.85;;;18.70;99.90;;;;;;5052407;28;20041;-66
2023/06/02 09:58:11;;;;;;;10.35;3.03;;;18.70;99.90;;;;;;5052243;28;20573;-66
2023/06/02 10:00:38;;;;;;;12.52;2.75;;;18.80;99.90;;;;;;5052438;28;20043;-66
2023/06/02 10:03:04;;;;;;;13.80;2.85;;;18.60;99.90;;;;;;5052208;28;20094;-66
2023/06/02 10:05:31;;;;;;;6.00;2.22;;;18.20;99.90;;;;;;5051900;28;20049;-67
2023/06/02 10:08:13;;;;;;;11.30;2.83;;;17.90;99.90;;;;;;5051953;28;20047;-66
2023/06/02 10:10:50;;;;;;;12.98;3.40;;;18.10;99.90;;;;;;5052192;28;20036;-67
2023/06/02 10:13:46;;;;;;;11.77;2.78;;;18.20;99.90;;;;;;5052070;28;20044;-67
2023/06/02 10:16:30;;;;;;;10.93;2.78;;;18.20;99.90;;;;;;5051735;28;20494;-67
2023/06/02 10:19:04;;;;;;;6.32;2.80;;;17.90;99.90;;;;;;5052049;28;20082;-67
2023/06/02 10:21:51;;;;;;;8.32;2.78;;;18.00;99.90;;;;;;5052288;28;20111;-67
2023/06/02 10:24:37;;;;;;;7.10;2.33;;;18.10;99.90;;;;;;5051658;28;20056;-66
2023/06/02 10:27:29;;;;;;;8.63;2.40;;;18.20;99.90;;;;;;5052213;28;20114;-66
2023/06/02 10:29:55;;;;;;;11.60;3.42;;;18.30;99.90;;;;;;5051555;28;20048;-67
2023/06/02 10:32:22;;;;;;;8.98;2.38;;;18.40;99.90;;;;;;5051945;28;20069;-67
2023/06/02 10:34:52;;;;;;;6.72;2.58;;;18.10;99.90;;;;;;5051058;28;20082;-67
2023/06/02 10:37:20;;;;;;;10.07;2.28;;;17.90;99.90;;;;;;5051099;28;20073;-67
2023/06/02 10:39:47;;;;;;;7.80;2.17;;;17.70;99.90;;;;;;5051592;28;20409;-67
2023/06/02 10:42:15;;;;;;;8.32;2.30;;;17.50;99.90;;;;;;5051786;28;20036;-66
2023/06/02 10:44:41;;;;;;;5.25;1.85;;;17.50;99.90;;;;;;5051490;28;20037;-66
2023/06/02 10:47:18;;;;;;;7.68;2.17;;;17.50;99.90;;;;;;5051703;28;20075;-67
2023/06/02 10:50:04;;;;;;;5.63;2.10;;;17.90;99.90;;;;;;5051838;28;20041;-67
2023/06/02 10:52:54;;;;;;;9.18;2.33;;;18.40;99.90;;;;;;5051965;28;20453;-67
2023/06/02 10:55:20;;;;;;;6.35;1.90;;;18.60;99.90;;;;;;5051074;28;20044;-67
2023/06/02 10:58:01;;;;;;;6.63;2.03;;;18.40;99.90;;;;;;5051468;28;20045;-67
2023/06/02 11:00:35;;;;;;;;;;;18.30;99.90;;;;;;5052011;28;20516;-67
2023/06/02 11:03:37;;;;;;;7.75;2.28;;;18.30;99.90;;;;;;5051719;28;19917;-66
2023/06/02 11:06:18;;;;;;;7.90;1.90;;;18.40;99.90;;;;;;5050730;28;20045;-67
2023/06/02 11:08:45;;;;;;;7.35;1.92;;;18.20;99.90;;;;;;5051497;28;20064;-66
2023/06/02 11:11:10;;;;;;;6.25;1.88;;;18.10;99.90;;;;;;5051510;28;20087;-67
2023/06/02 11:13:58;;;;;;;5.80;1.88;;;18.10;99.70;;;;;;5051332;28;20036;-66
2023/06/02 11:16:27;;;;;;;4.88;1.33;;;18.20;98.60;;;;;;5051460;28;20076;-66
2023/06/02 11:18:53;;;;;;;4.18;1.40;;;18.40;98.10;;;;;;5051044;28;20069;-66
2023/06/02 11:21:21;;;;;;;4.80;1.70;;;18.80;98.10;;;;;;5051559;28;20072;-66
2023/06/02 11:23:46;;;;;;;3.92;1.80;;;19.20;98.00;;;;;;5051056;28;20043;-67
2023/06/02 11:26:17;;;;;;;6.03;1.77;;;19.50;97.40;;;;;;5050884;28;20045;-66
2023/06/02 11:28:43;;;;;;;6.97;1.70;;;19.50;96.30;;;;;;5050851;28;20033;-66
2023/06/02 11:31:13;;;;;;;5.45;1.52;;;19.60;96.20;;;;;;5050902;28;20090;-67
2023/06/02 11:33:48;;;;;;;8.88;1.85;;;19.50;93.50;;;;;;5051319;28;20079;-67
2023/06/02 11:36:26;;;;;;;5.38;1.52;;;19.30;92.30;;;;;;5051173;28;20041;-67
2023/06/02 11:39:00;;;;;;;5.28;1.45;;;19.20;92.90;;;;;;5051139;28;20437;-66
2023/06/02 11:41:27;;;;;;;5.82;1.55;;;19.20;92.70;;;;;;5051180;28;20036;-67
2023/06/02 11:44:06;;;;;;;6.90;1.65;;;19.40;92.90;;;;;;5050948;28;20116;-67
2023/06/02 11:46:31;;;;;;;5.07;1.50;;;19.50;89.70;;;;;;5051240;28;20120;-67
2023/06/02 11:48:57;;;;;;;4.13;1.50;;;19.70;89.00;;;;;;5052792;28;20087;-66
2023/06/02 11:51:23;;;;;;;4.93;1.50;;;19.90;89.80;;;;;;5054485;28;20509;-67
2023/06/02 11:54:00;;;;;;;4.32;1.50;;;20.00;88.90;;;;;;5054423;28;20047;-67
2023/06/02 11:56:26;;;;;;;4.50;1.50;;;19.90;87.90;;;;;;5054665;28;20041;-67
2023/06/02 11:58:52;;;;;;;2.90;1.48;;;19.70;87.50;;;;;;5054615;28;20045;-67
2023/06/02 12:01:19;;;;;;;3.97;1.75;;;19.40;86.50;;;;;;5053793;28;20037;-67
2023/06/02 12:04:05;;;;;;;3.90;1.52;;;19.20;87.10;;;;;;5054484;28;20390;-67
2023/06/02 12:06:47;;;;;;;5.45;1.80;;;19.40;88.00;;;;;;5054592;28;20037;-67
2023/06/02 12:09:17;;;;;;;5.28;2.00;;;19.70;88.00;;;;;;5054400;28;20041;-66
2023/06/02 12:11:44;;;;;;;6.03;1.63;;;20.00;85.00;;;;;;5054546;28;20033;-67
2023/06/02 12:14:11;;;;;;;3.22;1.63;;;20.10;85.70;;;;;;5053950;28;20040;-67
2023/06/02 12:16:42;;;;;;;3.30;1.52;;;20.30;83.70;;;;;;5054364;28;20041;-67
2023/06/02 12:19:16;;;;;;;4.47;1.60;;;20.60;82.10;;;;;;5054045;28;20091;-66
2023/06/02 12:21:43;;;;;;;4.70;1.70;;;20.80;82.60;;;;;;5054179;28;20403;-66
2023/06/02 12:24:10;;;;;;;6.43;1.42;;;20.90;81.40;;;;;;5053927;28;20112;-66
2023/06/02 12:26:42;;;;;;;3.78;1.27;;;20.40;80.00;;;;;;5053739;28;20073;-66
2023/06/02 12:29:09;;;;;;;3.45;1.75;;;20.10;80.10;;;;;;5054097;28;20044;-67
2023/06/02 12:31:35;;;;;;;6.53;1.60;;;19.80;80.80;;;;;;5054137;28;20041;-67
2023/06/02 12:34:01;;;;;;;5.70;1.55;;;19.80;81.70;;;;;;5053776;28;20473;-67
2023/06/02 12:36:27;;;;;;;2.75;1.30;;;19.80;81.00;;;;;;5053386;28;20037;-67
2023/06/02 12:38:52;;;;;;;8.02;1.67;;;19.60;79.70;;;;;;5053973;28;20407;-66
2023/06/02 12:41:18;;;;;;;5.93;1.70;;;19.50;79.50;;;;;;5053849;28;20037;-67